Terminal Aerodrome Forecast
Issued by NWS Duluth, MN

Home | Current Version | Previous Version | Text Only | Print | Product List | Glossary On
Versions: 1 2 3 4 5 6 7 8 9 10 11 12 13 14 15 16 17 18 19 20 21 22 23 24 25 26 27 28 29 30 31 32
402
FTUS43 KDLH 251135
TAFINL
TAF
KINL 251135Z 2512/2612 16009KT 4SM -SHRA BR OVC007 WS020/19041KT
     FM251400 16008KT P6SM BKN007
     FM251600 21010G17KT P6SM SCT040
     FM252200 24010G19KT P6SM VCSH SCT011 BKN022
     FM260200 29012G21KT P6SM -SHRA SCT007 OVC015=

USA.gov is the U.S. government's official web portal to all federal, state and local government web resources and services.